createdAt,value
2023-04-08T00:00:41.952Z,94872.00
2023-04-08T00:01:42.105Z,94869.00
2023-04-08T00:02:42.364Z,94869.00
2023-04-08T00:03:42.555Z,94867.00
2023-04-08T00:04:42.591Z,94861.00
2023-04-08T00:05:42.723Z,94861.00
2023-04-08T00:06:42.883Z,94857.00
2023-04-08T00:07:43.110Z,94857.00
2023-04-08T00:08:43.280Z,94857.00
2023-04-08T00:09:43.457Z,94859.00
2023-04-08T00:10:43.509Z,94861.00
2023-04-08T00:11:43.673Z,94861.00
2023-04-08T00:12:43.911Z,94865.00
2023-04-08T00:13:44.085Z,94865.00
2023-04-08T00:14:44.190Z,94869.00
2023-04-08T00:15:44.320Z,94872.00
2023-04-08T00:16:44.676Z,94874.00
2023-04-08T00:17:44.796Z,94874.00
2023-04-08T00:18:44.939Z,94872.00
2023-04-08T00:19:44.982Z,94869.00
2023-04-08T00:20:45.148Z,94869.00
2023-04-08T00:21:45.405Z,94867.00
2023-04-08T00:22:45.576Z,94865.00
2023-04-08T00:23:45.618Z,94863.00
2023-04-08T00:24:45.897Z,94865.00
2023-04-08T00:25:46.107Z,94865.00
2023-04-08T00:26:46.277Z,94863.00
2023-04-08T00:27:46.321Z,94863.00
2023-04-08T00:28:46.480Z,94863.00
2023-04-08T00:29:46.648Z,94861.00
2023-04-08T00:30:46.899Z,94863.00
2023-04-08T00:31:47.012Z,94863.00
2023-04-08T00:32:47.285Z,94861.00
2023-04-08T00:33:47.433Z,94861.00
2023-04-08T00:34:47.613Z,94861.00
2023-04-08T00:35:47.785Z,94859.00
2023-04-08T00:36:47.922Z,94857.00
2023-04-08T00:37:47.978Z,94855.00
2023-04-08T00:38:48.400Z,94859.00
2023-04-08T00:39:48.347Z,94859.00
2023-04-08T00:40:48.574Z,94859.00
2023-04-08T00:41:48.688Z,94859.00
2023-04-08T00:42:48.679Z,94863.00
2023-04-08T00:43:48.697Z,94863.00
2023-04-08T00:44:48.641Z,94865.00
2023-04-08T00:45:48.691Z,94869.00
2023-04-08T00:46:48.627Z,94867.00
2023-04-08T00:47:48.684Z,94867.00
2023-04-08T00:48:48.899Z,94865.00
2023-04-08T00:49:48.620Z,94865.00
2023-04-08T00:50:48.633Z,94865.00
2023-04-08T00:51:48.640Z,94865.00
2023-04-08T00:52:48.740Z,94863.00
2023-04-08T00:53:48.761Z,94865.00
2023-04-08T00:54:48.802Z,94867.00
2023-04-08T00:55:48.862Z,94869.00
2023-04-08T00:56:48.935Z,94870.00
2023-04-08T00:57:49.131Z,94874.00
2023-04-08T00:58:49.258Z,94872.00
2023-04-08T00:59:49.099Z,94872.00
2023-04-08T01:00:49.146Z,94874.00
2023-04-08T01:01:49.302Z,94872.00
2023-04-08T01:02:49.339Z,94874.00
2023-04-08T01:03:49.406Z,94872.00
2023-04-08T01:04:49.378Z,94872.00
2023-04-08T01:05:49.384Z,94874.00
2023-04-08T01:06:49.454Z,94876.00
2023-04-08T01:07:49.514Z,94874.00
2023-04-08T01:08:49.956Z,94874.00
2023-04-08T01:09:49.645Z,94872.00
2023-04-08T01:10:49.633Z,94874.00
2023-04-08T01:11:49.688Z,94870.00
2023-04-08T01:12:49.759Z,94874.00
2023-04-08T01:13:49.817Z,94874.00
2023-04-08T01:14:49.825Z,94870.00
2023-04-08T01:15:49.973Z,94872.00
2023-04-08T01:16:49.980Z,94870.00
2023-04-08T01:17:50.073Z,94872.00
2023-04-08T01:18:50.245Z,94872.00
2023-04-08T01:19:50.099Z,94872.00
2023-04-08T01:20:50.177Z,94874.00
2023-04-08T01:21:50.227Z,94876.00
2023-04-08T01:22:50.283Z,94876.00
2023-04-08T01:23:50.347Z,94876.00
2023-04-08T01:24:50.352Z,94876.00
2023-04-08T01:25:50.414Z,94876.00
2023-04-08T01:26:50.455Z,94878.00
2023-04-08T01:27:50.478Z,94874.00
2023-04-08T01:28:50.696Z,94874.00
2023-04-08T01:29:50.606Z,94876.00
2023-04-08T01:30:50.677Z,94872.00
2023-04-08T01:31:50.688Z,94874.00
2023-04-08T01:32:50.803Z,94874.00
2023-04-08T01:33:50.809Z,94872.00
2023-04-08T01:34:50.843Z,94876.00
2023-04-08T01:35:50.955Z,94874.00
2023-04-08T01:36:50.960Z,94874.00
2023-04-08T01:37:51.009Z,94869.00
2023-04-08T01:38:51.324Z,94874.00
2023-04-08T01:39:51.117Z,94876.00
2023-04-08T01:40:51.170Z,94874.00
2023-04-08T01:41:51.261Z,94876.00
2023-04-08T01:42:51.242Z,94869.00
2023-04-08T01:43:51.290Z,94876.00
2023-04-08T01:44:51.383Z,94872.00
2023-04-08T01:45:51.414Z,94872.00
2023-04-08T01:46:51.500Z,94874.00
2023-04-08T01:47:51.570Z,94872.00
2023-04-08T01:48:51.898Z,94874.00
2023-04-08T01:49:51.609Z,94870.00
2023-04-08T01:50:51.657Z,94872.00
2023-04-08T01:51:51.717Z,94872.00
2023-04-08T01:52:51.754Z,94870.00
2023-04-08T01:53:51.830Z,94870.00
2023-04-08T01:54:51.872Z,94872.00
2023-04-08T01:55:51.915Z,94870.00
2023-04-08T01:56:51.962Z,94872.00
2023-04-08T01:57:52.063Z,94872.00
2023-04-08T01:58:52.287Z,94872.00
2023-04-08T01:59:52.115Z,94872.00
2023-04-08T02:00:52.195Z,94874.00
2023-04-08T02:01:52.252Z,94872.00
2023-04-08T02:02:52.511Z,94874.00
2023-04-08T02:03:52.421Z,94874.00
2023-04-08T02:04:52.403Z,94872.00
2023-04-08T02:05:52.430Z,94872.00
2023-04-08T02:06:52.441Z,94870.00
2023-04-08T02:07:52.550Z,94872.00
2023-04-08T02:08:52.817Z,94874.00
2023-04-08T02:09:52.604Z,94872.00
2023-04-08T02:10:52.651Z,94872.00
2023-04-08T02:11:52.706Z,94876.00
2023-04-08T02:12:52.784Z,94872.00
2023-04-08T02:13:52.832Z,94876.00
2023-04-08T02:14:52.898Z,94876.00
2023-04-08T02:15:52.968Z,94876.00
2023-04-08T02:16:52.959Z,94876.00
2023-04-08T02:17:53.029Z,94878.00
2023-04-08T02:18:53.061Z,94878.00
2023-04-08T02:19:53.195Z,94876.00
2023-04-08T02:20:53.193Z,94876.00
2023-04-08T02:21:53.253Z,94878.00
2023-04-08T02:22:53.263Z,94878.00
2023-04-08T02:23:53.335Z,94878.00
2023-04-08T02:24:53.415Z,94876.00
2023-04-08T02:25:53.490Z,94878.00
2023-04-08T02:26:53.523Z,94876.00
2023-04-08T02:27:53.539Z,94880.00
2023-04-08T02:28:53.625Z,94880.00
2023-04-08T02:29:53.697Z,94880.00
2023-04-08T02:30:53.723Z,94884.00
2023-04-08T02:31:53.890Z,94884.00
2023-04-08T02:32:53.877Z,94884.00
2023-04-08T02:33:53.880Z,94884.00
2023-04-08T02:34:53.956Z,94892.00
2023-04-08T02:35:54.048Z,94892.00
2023-04-08T02:36:54.085Z,94892.00
2023-04-08T02:37:54.121Z,94892.00
2023-04-08T02:38:54.198Z,94892.00
2023-04-08T02:39:54.196Z,94892.00
2023-04-08T02:40:54.299Z,94884.00
2023-04-08T02:41:54.308Z,94892.00
2023-04-08T02:42:54.425Z,94892.00
2023-04-08T02:43:54.438Z,94894.00
2023-04-08T02:44:54.548Z,94894.00
2023-04-08T02:45:54.663Z,94892.00
2023-04-08T02:46:54.771Z,94884.00
2023-04-08T02:47:54.696Z,94892.00
2023-04-08T02:48:54.772Z,94892.00
2023-04-08T02:49:54.829Z,94894.00
2023-04-08T02:50:54.887Z,94896.00
2023-04-08T02:51:54.889Z,94896.00
2023-04-08T02:52:55.002Z,94896.00
2023-04-08T02:53:55.082Z,94898.00
2023-04-08T02:54:55.120Z,94900.00
2023-04-08T02:55:55.151Z,94902.00
2023-04-08T02:56:55.228Z,94902.00
2023-04-08T02:57:55.277Z,94900.00
2023-04-08T02:58:55.354Z,94902.00
2023-04-08T02:59:55.405Z,94900.00
2023-04-08T03:00:55.577Z,94904.00
2023-04-08T03:01:55.589Z,94902.00
2023-04-08T03:02:55.758Z,94902.00
2023-04-08T03:03:55.724Z,94906.00
2023-04-08T03:04:55.699Z,94908.00
2023-04-08T03:05:55.806Z,94906.00
2023-04-08T03:06:55.812Z,94906.00
2023-04-08T03:07:55.923Z,94908.00
2023-04-08T03:08:55.939Z,94908.00
2023-04-08T03:09:56.047Z,94908.00
2023-04-08T03:10:56.041Z,94908.00
2023-04-08T03:11:56.195Z,94910.00
2023-04-08T03:12:56.213Z,94910.00
2023-04-08T03:13:56.275Z,94910.00
2023-04-08T03:14:56.352Z,94908.00
2023-04-08T03:15:56.388Z,94912.00
2023-04-08T03:16:56.480Z,94908.00
2023-04-08T03:17:56.548Z,94912.00
2023-04-08T03:18:56.561Z,94912.00
2023-04-08T03:19:56.615Z,94912.00
2023-04-08T03:20:56.704Z,94910.00
2023-04-08T03:21:56.753Z,94910.00
2023-04-08T03:22:56.812Z,94910.00
2023-04-08T03:23:56.890Z,94910.00
2023-04-08T03:24:56.928Z,94910.00
2023-04-08T03:25:56.961Z,94912.00
2023-04-08T03:26:57.005Z,94912.00
2023-04-08T03:27:57.075Z,94912.00
2023-04-08T03:28:57.128Z,94912.00
2023-04-08T03:29:57.208Z,94910.00
2023-04-08T03:30:57.274Z,94906.00
2023-04-08T03:31:57.427Z,94908.00
2023-04-08T03:32:57.491Z,94906.00
2023-04-08T03:33:57.562Z,94904.00
2023-04-08T03:34:57.568Z,94904.00
2023-04-08T03:35:57.649Z,94906.00
2023-04-08T03:36:57.682Z,94906.00
2023-04-08T03:37:57.826Z,94908.00
2023-04-08T03:38:57.739Z,94908.00
2023-04-08T03:39:57.831Z,94910.00
2023-04-08T03:40:57.855Z,94908.00
2023-04-08T03:41:57.934Z,94908.00
2023-04-08T03:42:58.016Z,94908.00
2023-04-08T03:43:58.051Z,94906.00
2023-04-08T03:44:58.159Z,94908.00
2023-04-08T03:45:58.228Z,94908.00
2023-04-08T03:46:58.241Z,94908.00
2023-04-08T03:47:58.435Z,94910.00
2023-04-08T03:48:58.398Z,94910.00
2023-04-08T03:49:58.478Z,94908.00
2023-04-08T03:50:58.525Z,94912.00
2023-04-08T03:51:58.572Z,94912.00
2023-04-08T03:52:58.645Z,94914.00
2023-04-08T03:53:58.696Z,94914.00
2023-04-08T03:54:58.748Z,94917.00
2023-04-08T03:55:58.806Z,94914.00
2023-04-08T03:56:58.860Z,94917.00
2023-04-08T03:57:58.952Z,94919.00
2023-04-08T03:58:58.964Z,94919.00
2023-04-08T03:59:59.000Z,94919.00
2023-04-08T04:00:59.084Z,94917.00
2023-04-08T04:01:59.212Z,94915.00
2023-04-08T04:02:59.312Z,94915.00
2023-04-08T04:03:59.473Z,94915.00
2023-04-08T04:04:59.419Z,94915.00
2023-04-08T04:05:59.388Z,94917.00
2023-04-08T04:06:59.505Z,94919.00
2023-04-08T04:07:59.505Z,94923.00
2023-04-08T04:08:59.617Z,94923.00
2023-04-08T04:09:59.622Z,94923.00
2023-04-08T04:10:59.682Z,94921.00
2023-04-08T04:11:59.745Z,94921.00
2023-04-08T04:12:59.819Z,94923.00
2023-04-08T04:13:59.859Z,94927.00
2023-04-08T04:14:59.967Z,94929.00
2023-04-08T04:16:00.035Z,94931.00
2023-04-08T04:17:14.751Z,94933.00
2023-04-08T04:18:00.101Z,94935.00
2023-04-08T04:19:00.130Z,94935.00
2023-04-08T04:20:00.045Z,94937.00
2023-04-08T04:21:00.018Z,94937.00
2023-04-08T04:22:00.001Z,94933.00
2023-04-08T04:22:59.981Z,94933.00
2023-04-08T04:24:00.016Z,94931.00
2023-04-08T04:24:59.983Z,94933.00
2023-04-08T04:25:59.994Z,94933.00
2023-04-08T04:27:00.003Z,94935.00
2023-04-08T04:27:59.978Z,94933.00
2023-04-08T04:29:00.028Z,94935.00
2023-04-08T04:29:59.958Z,94941.00
2023-04-08T04:31:00.016Z,94939.00
2023-04-08T04:31:59.986Z,94937.00
2023-04-08T04:33:00.043Z,94935.00
2023-04-08T04:33:59.950Z,94935.00
2023-04-08T04:34:59.926Z,94933.00
2023-04-08T04:35:59.913Z,94937.00
2023-04-08T04:36:59.911Z,94937.00
2023-04-08T04:37:59.917Z,94941.00
2023-04-08T04:38:59.916Z,94943.00
2023-04-08T04:39:59.929Z,94943.00
2023-04-08T04:40:59.937Z,94947.00
2023-04-08T04:41:59.901Z,94947.00
2023-04-08T04:42:59.881Z,94947.00
2023-04-08T04:43:59.863Z,94951.00
2023-04-08T04:44:59.862Z,94947.00
2023-04-08T04:45:59.884Z,94949.00
2023-04-08T04:46:59.821Z,94949.00
2023-04-08T04:47:59.869Z,94951.00
2023-04-08T04:48:59.837Z,94953.00
2023-04-08T04:49:59.820Z,94953.00
2023-04-08T04:50:59.859Z,94955.00
2023-04-08T04:51:59.859Z,94953.00
2023-04-08T04:52:59.819Z,94953.00
2023-04-08T04:53:59.826Z,94953.00
2023-04-08T04:54:59.827Z,94955.00
2023-04-08T04:55:59.862Z,94955.00
2023-04-08T04:56:59.934Z,94957.00
2023-04-08T04:57:59.997Z,94957.00
2023-04-08T04:59:00.070Z,94957.00
2023-04-08T05:00:00.131Z,94957.00
2023-04-08T05:01:00.190Z,94959.00
2023-04-08T05:02:00.338Z,94959.00
2023-04-08T05:03:00.429Z,94959.00
2023-04-08T05:04:00.365Z,94959.00
2023-04-08T05:05:00.536Z,94959.00
2023-04-08T05:06:00.444Z,94959.00
2023-04-08T05:07:00.522Z,94961.00
2023-04-08T05:08:00.544Z,94959.00
2023-04-08T05:09:00.646Z,94959.00
2023-04-08T05:10:00.782Z,94962.00
2023-04-08T05:11:00.717Z,94961.00
2023-04-08T05:12:00.731Z,94961.00
2023-04-08T05:13:00.806Z,94961.00
2023-04-08T05:14:00.832Z,94962.00
2023-04-08T05:15:00.936Z,94961.00
2023-04-08T05:16:00.963Z,94962.00
2023-04-08T05:17:01.010Z,94964.00
2023-04-08T05:18:01.152Z,94966.00
2023-04-08T05:19:01.114Z,94966.00
2023-04-08T05:20:01.216Z,94966.00
2023-04-08T05:21:01.243Z,94970.00
2023-04-08T05:22:01.342Z,94972.00
2023-04-08T05:23:01.361Z,94972.00
2023-04-08T05:24:01.375Z,94974.00
2023-04-08T05:25:01.470Z,94974.00
2023-04-08T05:26:01.507Z,94974.00
2023-04-08T05:28:14.434Z,94974.00
2023-04-08T05:29:14.669Z,94974.00
2023-04-08T05:30:14.883Z,94972.00
2023-04-08T05:31:15.030Z,94974.00
2023-04-08T05:32:15.187Z,94974.00
2023-04-08T05:33:15.409Z,94976.00
2023-04-08T05:34:15.511Z,94972.00
2023-04-08T05:35:15.499Z,94972.00
2023-04-08T05:36:15.537Z,94974.00
2023-04-08T05:37:15.503Z,94974.00
2023-04-08T05:38:15.501Z,94974.00
2023-04-08T05:39:15.499Z,94976.00
2023-04-08T05:40:15.542Z,94978.00
2023-04-08T05:41:15.474Z,94980.00
2023-04-08T05:42:15.517Z,94980.00
2023-04-08T05:43:15.433Z,94982.00
2023-04-08T05:44:15.430Z,94982.00
2023-04-08T05:45:15.435Z,94982.00
2023-04-08T05:46:15.455Z,94980.00
2023-04-08T05:47:15.411Z,94980.00
2023-04-08T05:48:15.412Z,94980.00
2023-04-08T05:49:15.412Z,94978.00
2023-04-08T05:50:15.378Z,94980.00
2023-04-08T05:51:15.437Z,94978.00
2023-04-08T05:52:15.546Z,94978.00
2023-04-08T05:53:15.746Z,94982.00
2023-04-08T05:54:15.918Z,94984.00
2023-04-08T05:55:16.111Z,94984.00
2023-04-08T05:56:16.330Z,94986.00
2023-04-08T05:57:16.566Z,94984.00
2023-04-08T05:58:16.699Z,94984.00
2023-04-08T05:59:16.923Z,94984.00
2023-04-08T06:00:17.073Z,94986.00
2023-04-08T06:01:17.280Z,94984.00
2023-04-08T06:02:17.586Z,94984.00
2023-04-08T06:03:18.994Z,94984.00
2023-04-08T06:04:17.426Z,94984.00
2023-04-08T06:05:17.360Z,94984.00
2023-04-08T06:06:17.362Z,94984.00
2023-04-08T06:07:17.308Z,94986.00
2023-04-08T06:08:17.334Z,94984.00
2023-04-08T06:09:17.345Z,94984.00
2023-04-08T06:10:17.343Z,94986.00
2023-04-08T06:11:17.348Z,94986.00
2023-04-08T06:12:17.313Z,94986.00
2023-04-08T06:13:17.301Z,94986.00
2023-04-08T06:14:17.311Z,94986.00
2023-04-08T06:15:17.276Z,94988.00
2023-04-08T06:16:19.570Z,94990.00
2023-04-08T06:17:17.279Z,94988.00
2023-04-08T06:18:17.312Z,94988.00
2023-04-08T06:19:17.458Z,94988.00
2023-04-08T06:20:17.255Z,94990.00
2023-04-08T06:21:17.241Z,94988.00
2023-04-08T06:22:17.217Z,94986.00
2023-04-08T06:23:17.210Z,94988.00
2023-04-08T06:24:17.228Z,94982.00
2023-04-08T06:25:17.224Z,94988.00
2023-04-08T06:26:17.184Z,94986.00
2023-04-08T06:27:17.192Z,94990.00
2023-04-08T06:28:17.168Z,94988.00
2023-04-08T06:29:17.217Z,94986.00
2023-04-08T06:30:17.159Z,94984.00
2023-04-08T06:31:17.222Z,94986.00
2023-04-08T06:32:17.182Z,94984.00
2023-04-08T06:33:17.195Z,94984.00
2023-04-08T06:34:17.140Z,94986.00
2023-04-08T06:35:17.164Z,94986.00
2023-04-08T06:36:17.152Z,94984.00
2023-04-08T06:37:17.123Z,94984.00
2023-04-08T06:38:17.128Z,94984.00
2023-04-08T06:39:17.129Z,94984.00
2023-04-08T06:40:17.128Z,94986.00
2023-04-08T06:41:17.103Z,94986.00
2023-04-08T06:42:17.098Z,94986.00
2023-04-08T06:43:17.109Z,94984.00
2023-04-08T06:44:17.131Z,94984.00
2023-04-08T06:45:17.118Z,94986.00
2023-04-08T06:46:17.192Z,94986.00
2023-04-08T06:47:17.246Z,94984.00
2023-04-08T06:48:17.290Z,94986.00
2023-04-08T06:49:17.351Z,94988.00
2023-04-08T06:50:17.409Z,94986.00
2023-04-08T06:51:17.471Z,94986.00
2023-04-08T06:52:17.523Z,94988.00
2023-04-08T06:53:17.522Z,94986.00
2023-04-08T06:54:17.652Z,94986.00
2023-04-08T06:55:17.649Z,94984.00
2023-04-08T06:56:17.705Z,94986.00
2023-04-08T06:57:17.823Z,94986.00
2023-04-08T06:58:17.815Z,94984.00
2023-04-08T06:59:17.822Z,94984.00
2023-04-08T07:00:17.883Z,94986.00
2023-04-08T07:01:17.957Z,94984.00
2023-04-08T07:02:18.053Z,94986.00
2023-04-08T07:03:18.214Z,94986.00
2023-04-08T07:04:18.127Z,94984.00
2023-04-08T07:05:18.136Z,94984.00
2023-04-08T07:06:18.184Z,94986.00
2023-04-08T07:07:18.230Z,94986.00
2023-04-08T07:08:18.292Z,94986.00
2023-04-08T07:09:18.358Z,94984.00
2023-04-08T07:10:18.462Z,94984.00
2023-04-08T07:11:18.522Z,94986.00
2023-04-08T07:12:18.668Z,94986.00
2023-04-08T07:13:18.589Z,94984.00
2023-04-08T07:14:18.641Z,94986.00
2023-04-08T07:15:18.705Z,94990.00
2023-04-08T07:16:18.798Z,94986.00
2023-04-08T07:17:18.822Z,94992.00
2023-04-08T07:18:18.871Z,94992.00
2023-04-08T07:19:18.942Z,94994.00
2023-04-08T07:20:19.020Z,94992.00
2023-04-08T07:21:19.097Z,94992.00
2023-04-08T07:22:19.164Z,94992.00
2023-04-08T07:23:19.214Z,94990.00
2023-04-08T07:24:19.274Z,94990.00
2023-04-08T07:25:19.333Z,94992.00
2023-04-08T07:26:19.400Z,94994.00
2023-04-08T07:27:19.447Z,94992.00
2023-04-08T07:28:19.514Z,94990.00
2023-04-08T07:29:19.552Z,94994.00
2023-04-08T07:30:19.623Z,94992.00
2023-04-08T07:31:19.716Z,94990.00
2023-04-08T07:32:19.763Z,94992.00
2023-04-08T07:33:19.798Z,94994.00
2023-04-08T07:34:19.857Z,94994.00
2023-04-08T07:35:19.929Z,94996.00
2023-04-08T07:36:20.020Z,94996.00
2023-04-08T07:37:20.106Z,94998.00
2023-04-08T07:38:20.087Z,94996.00
2023-04-08T07:39:20.190Z,94998.00
2023-04-08T07:40:20.289Z,95000.00
2023-04-08T07:41:20.326Z,94998.00
2023-04-08T07:42:20.371Z,94996.00
2023-04-08T07:43:20.428Z,94994.00
2023-04-08T07:44:20.488Z,94998.00
2023-04-08T07:45:20.546Z,94996.00
2023-04-08T07:46:20.682Z,94994.00
2023-04-08T07:47:20.654Z,94996.00
2023-04-08T07:48:20.711Z,94996.00
2023-04-08T07:49:20.771Z,94994.00
2023-04-08T07:50:20.839Z,94994.00
2023-04-08T07:51:21.065Z,94994.00
2023-04-08T07:52:20.951Z,94994.00
2023-04-08T07:53:22.239Z,94992.00
2023-04-08T07:54:21.016Z,94992.00
2023-04-08T07:55:21.045Z,94992.00
2023-04-08T07:56:20.969Z,94996.00
2023-04-08T07:57:20.992Z,94998.00
2023-04-08T07:58:20.978Z,94994.00
2023-04-08T07:59:20.958Z,94996.00
2023-04-08T08:00:20.971Z,94996.00
2023-04-08T08:01:20.970Z,94994.00
2023-04-08T08:02:21.135Z,94994.00
2023-04-08T08:03:21.095Z,94990.00
2023-04-08T08:04:21.140Z,94992.00
2023-04-08T08:05:20.948Z,94990.00
2023-04-08T08:06:21.130Z,94994.00
2023-04-08T08:07:20.949Z,94990.00
2023-04-08T08:08:20.912Z,94992.00
2023-04-08T08:09:20.915Z,94990.00
2023-04-08T08:10:20.930Z,94988.00
2023-04-08T08:11:20.891Z,94990.00
2023-04-08T08:12:20.878Z,94992.00
2023-04-08T08:13:20.897Z,94990.00
2023-04-08T08:14:20.909Z,94990.00
2023-04-08T08:15:20.869Z,94992.00
2023-04-08T08:16:20.890Z,94992.00
2023-04-08T08:17:20.871Z,94992.00
2023-04-08T08:18:20.921Z,94992.00
2023-04-08T08:19:20.824Z,94988.00
2023-04-08T08:20:21.438Z,94990.00
2023-04-08T08:21:20.835Z,94988.00
2023-04-08T08:22:20.843Z,94986.00
2023-04-08T08:23:20.811Z,94986.00
2023-04-08T08:24:20.803Z,94982.00
2023-04-08T08:25:20.826Z,94984.00
2023-04-08T08:26:20.769Z,94978.00
2023-04-08T08:27:20.782Z,94980.00
2023-04-08T08:28:20.742Z,94978.00
2023-04-08T08:29:20.768Z,94980.00
2023-04-08T08:30:20.758Z,94978.00
2023-04-08T08:31:20.779Z,94982.00
2023-04-08T08:32:20.915Z,94982.00
2023-04-08T08:33:20.734Z,94980.00
2023-04-08T08:34:20.780Z,94980.00
2023-04-08T08:35:20.832Z,94982.00
2023-04-08T08:36:20.865Z,94980.00
2023-04-08T08:37:20.906Z,94980.00
2023-04-08T08:38:20.915Z,94978.00
2023-04-08T08:39:20.963Z,94976.00
2023-04-08T08:40:21.094Z,94976.00
2023-04-08T08:41:21.039Z,94976.00
2023-04-08T08:42:21.083Z,94976.00
2023-04-08T08:43:21.142Z,94976.00
2023-04-08T08:44:21.116Z,94974.00
2023-04-08T08:45:21.226Z,94978.00
2023-04-08T08:46:21.243Z,94976.00
2023-04-08T08:47:21.247Z,94976.00
2023-04-08T08:48:21.286Z,94974.00
2023-04-08T08:49:21.306Z,94972.00
2023-04-08T08:50:21.347Z,94974.00
2023-04-08T08:51:21.351Z,94974.00
2023-04-08T08:52:21.417Z,94972.00
2023-04-08T08:53:21.569Z,94976.00
2023-04-08T08:54:21.468Z,94970.00
2023-04-08T08:55:36.269Z,94970.00
2023-04-08T08:56:22.489Z,94970.00
2023-04-08T08:57:21.491Z,94968.00
2023-04-08T08:58:21.449Z,94966.00
2023-04-08T08:59:21.463Z,94964.00
2023-04-08T09:00:21.476Z,94966.00
2023-04-08T09:01:21.503Z,94962.00
2023-04-08T09:02:21.561Z,94962.00
2023-04-08T09:03:21.663Z,94968.00
2023-04-08T09:04:21.583Z,94966.00
2023-04-08T09:05:21.579Z,94966.00
2023-04-08T09:06:21.419Z,94966.00
2023-04-08T09:07:21.413Z,94962.00
2023-04-08T09:08:21.435Z,94962.00
2023-04-08T09:09:21.427Z,94961.00
2023-04-08T09:10:21.381Z,94959.00
2023-04-08T09:11:21.379Z,94961.00
2023-04-08T09:12:21.391Z,94959.00
2023-04-08T09:13:21.401Z,94959.00
2023-04-08T09:14:21.467Z,94959.00
2023-04-08T09:15:21.515Z,94959.00
2023-04-08T09:16:21.456Z,94957.00
2023-04-08T09:17:21.488Z,94959.00
2023-04-08T09:18:21.528Z,94957.00
2023-04-08T09:19:21.553Z,94957.00
2023-04-08T09:20:21.551Z,94955.00
2023-04-08T09:21:21.623Z,94953.00
2023-04-08T09:22:21.630Z,94953.00
2023-04-08T09:23:21.624Z,94953.00
2023-04-08T09:24:21.675Z,94955.00
2023-04-08T09:25:21.752Z,94951.00
2023-04-08T09:26:21.690Z,94947.00
2023-04-08T09:27:21.703Z,94949.00
2023-04-08T09:33:08.694Z,94945.00
2023-04-08T09:34:08.741Z,94939.00
2023-04-08T09:35:08.918Z,94939.00
2023-04-08T09:36:08.980Z,94939.00
2023-04-08T09:37:09.165Z,94939.00
2023-04-08T09:38:09.306Z,94935.00
2023-04-08T09:39:09.453Z,94935.00
2023-04-08T09:40:09.674Z,94933.00
2023-04-08T09:41:09.716Z,94933.00
2023-04-08T09:42:09.763Z,94935.00
2023-04-08T09:43:09.990Z,94939.00
2023-04-08T09:44:10.027Z,94937.00
2023-04-08T09:45:10.217Z,94935.00
2023-04-08T09:46:10.345Z,94933.00
2023-04-08T09:47:10.570Z,94931.00
2023-04-08T09:48:10.594Z,94931.00
2023-04-08T09:49:10.856Z,94927.00
2023-04-08T09:50:10.970Z,94923.00
2023-04-08T09:51:11.017Z,94925.00
2023-04-08T09:52:11.128Z,94921.00
2023-04-08T09:53:11.329Z,94917.00
2023-04-08T09:54:11.503Z,94921.00
2023-04-08T09:55:11.502Z,94919.00
2023-04-08T09:56:11.622Z,94919.00
2023-04-08T09:57:11.728Z,94917.00
2023-04-08T09:58:11.990Z,94915.00
2023-04-08T09:59:12.078Z,94914.00
2023-04-08T10:00:12.203Z,94914.00
2023-04-08T10:01:12.434Z,94915.00
2023-04-08T10:02:12.407Z,94914.00
2023-04-08T10:03:12.922Z,94914.00
2023-04-08T10:04:12.731Z,94912.00
2023-04-08T10:05:12.688Z,94914.00
2023-04-08T10:06:12.649Z,94912.00
2023-04-08T10:07:12.651Z,94915.00
2023-04-08T10:08:12.666Z,94914.00
2023-04-08T10:09:12.627Z,94906.00
2023-04-08T10:10:12.645Z,94914.00
2023-04-08T10:11:12.636Z,94914.00
2023-04-08T10:12:12.658Z,94912.00
2023-04-08T10:13:12.596Z,94910.00
2023-04-08T10:14:12.607Z,94914.00
2023-04-08T10:15:12.579Z,94912.00
2023-04-08T10:16:12.621Z,94912.00
2023-04-08T10:17:12.572Z,94912.00
2023-04-08T10:18:12.598Z,94910.00
2023-04-08T10:19:12.596Z,94908.00
2023-04-08T10:20:12.573Z,94908.00
2023-04-08T10:21:12.544Z,94910.00
2023-04-08T10:22:12.611Z,94910.00
2023-04-08T10:23:12.550Z,94912.00
2023-04-08T10:24:12.521Z,94910.00
2023-04-08T10:25:12.496Z,94908.00
2023-04-08T10:26:12.556Z,94908.00
2023-04-08T10:27:12.560Z,94908.00
2023-04-08T10:28:12.605Z,94908.00
2023-04-08T10:29:12.665Z,94904.00
2023-04-08T10:30:12.670Z,94906.00
2023-04-08T10:31:12.714Z,94904.00
2023-04-08T10:32:12.751Z,94904.00
2023-04-08T10:33:12.834Z,94902.00
2023-04-08T10:35:32.121Z,94902.00
2023-04-08T10:36:32.299Z,94902.00
2023-04-08T10:37:32.332Z,94900.00
2023-04-08T10:38:32.619Z,94898.00
2023-04-08T10:39:32.724Z,94898.00
2023-04-08T10:40:32.952Z,94898.00
2023-04-08T10:41:32.883Z,94898.00
2023-04-08T10:42:33.177Z,94902.00
2023-04-08T10:43:33.277Z,94904.00
2023-04-08T10:44:33.352Z,94904.00
2023-04-08T10:45:33.499Z,94908.00
2023-04-08T10:46:33.722Z,94908.00
2023-04-08T10:47:33.852Z,94910.00
2023-04-08T10:48:33.991Z,94912.00
2023-04-08T10:49:34.138Z,94912.00
2023-04-08T10:50:34.238Z,94912.00
2023-04-08T10:51:34.309Z,94915.00
2023-04-08T10:52:34.420Z,94915.00
2023-04-08T10:53:34.675Z,94915.00
2023-04-08T10:54:34.664Z,94915.00
2023-04-08T10:55:34.788Z,94915.00
2023-04-08T10:56:35.245Z,94915.00
2023-04-08T10:57:35.075Z,94919.00
2023-04-08T10:58:35.325Z,94919.00
2023-04-08T10:59:35.360Z,94921.00
2023-04-08T11:00:35.539Z,94919.00
2023-04-08T11:01:35.740Z,94917.00
2023-04-08T11:02:35.759Z,94919.00
2023-04-08T11:03:48.514Z,94915.00
2023-04-08T11:04:36.960Z,94915.00
2023-04-08T11:05:35.895Z,94915.00
2023-04-08T11:06:35.841Z,94915.00
2023-04-08T11:07:35.893Z,94915.00
2023-04-08T11:08:35.859Z,94915.00
2023-04-08T11:09:35.875Z,94914.00
2023-04-08T11:10:35.825Z,94914.00
2023-04-08T11:11:35.814Z,94915.00
2023-04-08T11:12:35.868Z,94914.00
2023-04-08T11:13:35.842Z,94917.00
2023-04-08T11:14:35.830Z,94917.00
2023-04-08T11:15:35.843Z,94921.00
2023-04-08T11:16:35.882Z,94925.00
2023-04-08T11:17:35.858Z,94925.00
2023-04-08T11:18:35.783Z,94925.00
2023-04-08T11:19:35.868Z,94925.00
2023-04-08T11:20:35.937Z,94925.00
2023-04-08T11:21:36.063Z,94925.00
2023-04-08T11:22:36.097Z,94921.00
2023-04-08T11:23:36.179Z,94921.00
2023-04-08T11:24:36.189Z,94919.00
2023-04-08T11:25:36.194Z,94919.00
2023-04-08T11:26:36.155Z,94917.00
2023-04-08T11:27:36.189Z,94919.00
2023-04-08T11:28:36.316Z,94914.00
2023-04-08T11:29:36.420Z,94915.00
2023-04-08T11:30:36.521Z,94915.00
2023-04-08T11:31:36.593Z,94912.00
2023-04-08T11:32:36.523Z,94912.00
2023-04-08T11:33:36.529Z,94915.00
2023-04-08T11:34:36.586Z,94914.00
2023-04-08T11:35:36.668Z,94914.00
2023-04-08T11:36:37.218Z,94912.00
2023-04-08T11:37:36.774Z,94915.00
2023-04-08T11:38:36.734Z,94914.00
2023-04-08T11:39:36.784Z,94915.00
2023-04-08T11:40:36.754Z,94914.00
2023-04-08T11:41:36.740Z,94915.00
2023-04-08T11:42:36.763Z,94915.00
2023-04-08T11:43:36.793Z,94914.00
2023-04-08T11:44:36.761Z,94910.00
2023-04-08T11:45:36.758Z,94912.00
2023-04-08T11:46:36.791Z,94908.00
2023-04-08T11:47:36.830Z,94908.00
2023-04-08T11:48:36.828Z,94908.00
2023-04-08T11:49:36.802Z,94904.00
2023-04-08T11:50:36.801Z,94904.00
2023-04-08T11:51:36.806Z,94904.00
2023-04-08T11:52:36.930Z,94898.00